CMN weather

Mohammed V International Airport
Casablanca, Casablanca Province, Morocco

Public forecast

Using degrees Celsius for public forecast. Weather courtesy of forecast.io.

METAR (pilot weather report)

Retrieved 2019/04/19 08:30 UTC (0 seconds ago):

GMMN 190830Z 21009KT 9999 BKN016 14/14 Q1016 NOSIG

TAF (pilot weather forecast)

Retrieved 2019/04/19 06:55 UTC (1 hour ago):

TAF GMMN 190500Z 1906/2012 20007KT 9999 SCT013 SCT020 TEMPO 1906/2012 26013KT 4000 RA BKN016 BKN030